Valley of Fire, Nevada
Current Conditions -  °F | °C
As of 11:58 PM on Thursday 18 Dec 2014 (Local Time) from KLSV Reporting Station
Clear Clear  
Wind Chill: 40°   Ceiling: Unl
Heat Index: 40°   Visibility: 10mi
Dew Point: 38°   Wind: 2mph
Humidity: 90%   Direction: 20°NNE
Pressure: 30.22"   Gusts: NA
Location:  36.5809°N, 114.605°W
Report Text: KLSV 190758Z AUTO 02002KT 10SM CLR 05/03 A3022 RMK AO2 SLP233 T00470032 401330047 $
Loading
Personal Weather Stations






























Interactive Weather Map New forecast layout! Learn more

10-Day Weather Forecast

Advertisements
Track Severe Weather on mobile